createdAt,value
2023-01-12T00:00:19.599Z,100308.72
2023-01-12T00:02:49.149Z,100308.47
2023-01-12T00:05:17.226Z,100297.81
2023-01-12T00:07:47.169Z,100303.47
2023-01-12T00:10:15.154Z,100292.00
2023-01-12T00:12:44.514Z,100300.19
2023-01-12T00:15:12.764Z,100292.22
2023-01-12T00:17:40.669Z,100294.78
2023-01-12T00:20:10.386Z,100289.50
2023-01-12T00:22:39.595Z,100287.38
2023-01-12T00:25:09.280Z,100278.66
2023-01-12T00:27:39.300Z,100281.47
2023-01-12T00:30:12.903Z,100270.94
2023-01-12T00:32:41.301Z,100266.69
2023-01-12T00:35:17.306Z,100258.72
2023-01-12T00:37:52.250Z,100241.38
2023-01-12T00:40:32.437Z,100229.81
2023-01-12T00:43:19.946Z,100235.84
2023-01-12T00:45:52.580Z,100240.84
2023-01-12T00:48:26.784Z,100235.47
2023-01-12T00:50:56.683Z,100236.44
2023-01-12T00:53:24.578Z,100257.84
2023-01-12T00:55:52.585Z,100256.88
2023-01-12T00:58:20.863Z,100264.84
2023-01-12T01:00:51.275Z,100248.09
2023-01-12T01:03:19.666Z,100234.91
2023-01-12T01:05:47.646Z,100227.72
2023-01-12T01:08:15.621Z,100225.03
2023-01-12T01:10:43.501Z,100209.25
2023-01-12T01:13:11.628Z,100221.59
2023-01-12T01:15:39.721Z,100186.09
2023-01-12T01:18:10.170Z,100202.16
2023-01-12T01:20:38.965Z,100199.63
2023-01-12T01:23:06.994Z,100204.84
2023-01-12T01:25:35.092Z,100215.22
2023-01-12T01:28:03.123Z,100202.34
2023-01-12T01:30:35.935Z,100203.59
2023-01-12T01:33:04.027Z,100205.31
2023-01-12T01:35:37.234Z,100206.22
2023-01-12T01:38:05.838Z,100189.53
2023-01-12T01:40:34.773Z,100180.88
2023-01-12T01:43:03.063Z,100188.75
2023-01-12T01:45:31.027Z,100198.66
2023-01-12T01:48:02.258Z,100192.66
2023-01-12T01:50:36.933Z,100186.59
2023-01-12T01:53:07.325Z,100164.31
2023-01-12T01:55:39.987Z,100145.97
2023-01-12T01:58:11.014Z,100144.69
2023-01-12T02:00:40.376Z,100120.31
2023-01-12T02:03:11.409Z,100112.19
2023-01-12T02:05:46.886Z,100106.69
2023-01-12T02:08:25.057Z,100085.19
2023-01-12T02:10:57.063Z,100104.09
2023-01-12T02:13:46.821Z,100082.88
2023-01-12T02:16:26.504Z,100087.13
2023-01-12T02:19:10.235Z,100096.00
2023-01-12T02:22:00.618Z,100084.59
2023-01-12T02:25:06.602Z,100079.31
2023-01-12T02:28:08.965Z,100048.75
2023-01-12T02:31:07.082Z,100054.84
2023-01-12T02:33:46.903Z,100038.25
2023-01-12T02:36:24.182Z,100043.47
2023-01-12T02:39:01.065Z,100027.78
2023-01-12T02:41:55.237Z,100025.00
2023-01-12T02:44:31.577Z,100008.69
2023-01-12T02:47:07.773Z,100003.19
2023-01-12T02:49:41.518Z,99992.69
2023-01-12T02:52:14.238Z,99982.50
2023-01-12T02:54:47.339Z,99977.72
2023-01-12T02:57:16.868Z,99958.53
2023-01-12T02:59:46.652Z,99941.25
2023-01-12T03:02:19.949Z,99942.31
2023-01-12T03:04:48.611Z,99928.09
2023-01-12T03:07:45.272Z,99918.50
2023-01-12T03:10:37.364Z,99913.16
2023-01-12T03:13:10.546Z,99904.41
2023-01-12T03:15:43.838Z,99918.16
2023-01-12T03:18:22.614Z,99902.34
2023-01-12T03:20:54.291Z,99888.22
2023-01-12T03:23:28.542Z,99885.50
2023-01-12T03:26:00.129Z,99869.50
2023-01-12T03:28:34.408Z,99865.59
2023-01-12T03:31:11.497Z,99857.50
2023-01-12T03:33:42.842Z,99862.66
2023-01-12T03:36:25.573Z,99856.53
2023-01-12T03:39:12.552Z,99847.69
2023-01-12T03:41:52.794Z,99834.47
2023-01-12T03:44:28.350Z,99851.19
2023-01-12T03:47:06.144Z,99838.06
2023-01-12T03:49:40.801Z,99819.75
2023-01-12T03:52:14.162Z,99832.78
2023-01-12T03:54:44.458Z,99814.28
2023-01-12T03:57:14.333Z,99806.44
2023-01-12T03:59:42.920Z,99794.97
2023-01-12T04:02:11.111Z,99787.13
2023-01-12T04:04:40.525Z,99782.81
2023-01-12T04:07:08.593Z,99783.56
2023-01-12T04:09:37.549Z,99769.75
2023-01-12T04:12:11.340Z,99756.75
2023-01-12T04:14:39.818Z,99759.31
2023-01-12T04:17:10.504Z,99763.47
2023-01-12T04:19:40.529Z,99743.50
2023-01-12T04:22:27.080Z,99711.44
2023-01-12T04:24:55.047Z,99723.31
2023-01-12T04:27:23.136Z,99726.59
2023-01-12T04:29:59.781Z,99731.81
2023-01-12T04:32:31.000Z,99711.38
2023-01-12T04:35:00.878Z,99723.94
2023-01-12T04:37:29.435Z,99708.41
2023-01-12T04:39:57.514Z,99721.31
2023-01-12T04:42:43.225Z,99707.94
2023-01-12T04:45:13.023Z,99681.00
2023-01-12T04:47:41.088Z,99677.59
2023-01-12T04:50:11.795Z,99666.31
2023-01-12T04:52:40.169Z,99670.81
2023-01-12T04:55:10.732Z,99648.06
2023-01-12T04:57:38.768Z,99639.38
2023-01-12T05:00:08.453Z,99628.28
2023-01-12T05:02:36.535Z,99617.72
2023-01-12T05:05:05.340Z,99595.06
2023-01-12T05:07:35.265Z,99581.88
2023-01-12T05:10:20.669Z,99547.72
2023-01-12T05:12:48.695Z,99529.81
2023-01-12T05:15:16.813Z,99508.31
2023-01-12T05:17:44.777Z,99492.34
2023-01-12T05:20:13.330Z,99496.84
2023-01-12T05:22:44.952Z,99477.88
2023-01-12T05:25:15.066Z,99471.69
2023-01-12T05:27:43.182Z,99463.78
2023-01-12T05:30:11.725Z,99462.00
2023-01-12T05:32:42.149Z,99470.75
2023-01-12T05:35:11.196Z,99470.06
2023-01-12T05:37:39.764Z,99456.03
2023-01-12T05:40:10.617Z,99442.66
2023-01-12T05:42:56.103Z,99440.97
2023-01-12T05:45:24.174Z,99447.03
2023-01-12T05:47:58.620Z,99442.66
2023-01-12T05:50:26.471Z,99432.13
2023-01-12T05:52:54.558Z,99434.84
2023-01-12T05:55:23.911Z,99404.22
2023-01-12T05:58:11.311Z,99431.75
2023-01-12T06:00:49.718Z,99393.03
2023-01-12T06:03:18.710Z,99386.91
2023-01-12T06:06:06.375Z,99405.84
2023-01-12T06:09:22.373Z,99407.47
2023-01-12T06:12:10.463Z,99401.25
2023-01-12T06:14:39.381Z,99406.22
2023-01-12T06:17:07.409Z,99405.34
2023-01-12T06:19:36.982Z,99380.84
2023-01-12T06:22:11.427Z,99385.09
2023-01-12T06:24:41.978Z,99403.97
2023-01-12T06:27:11.685Z,99403.50
2023-01-12T06:29:39.644Z,99417.84
2023-01-12T06:32:09.796Z,99424.50
2023-01-12T06:34:38.949Z,99421.66
2023-01-12T06:37:08.713Z,99387.22
2023-01-12T06:39:40.045Z,99387.34
2023-01-12T06:42:41.611Z,99404.94
2023-01-12T06:45:12.787Z,99412.72
2023-01-12T06:47:56.169Z,99393.16
2023-01-12T06:50:27.212Z,99396.16
2023-01-12T06:52:56.019Z,99388.31
2023-01-12T06:55:24.437Z,99411.34
2023-01-12T06:57:55.069Z,99404.88
2023-01-12T07:00:24.023Z,99385.44
2023-01-12T07:02:53.896Z,99384.25
2023-01-12T07:05:22.358Z,99393.28
2023-01-12T07:07:51.461Z,99384.72
2023-01-12T07:10:22.119Z,99417.75
2023-01-12T07:12:51.494Z,99407.72
2023-01-12T07:15:25.977Z,99379.44
2023-01-12T07:17:57.372Z,99407.63
2023-01-12T07:20:30.584Z,99388.47
2023-01-12T07:23:02.213Z,99382.25
2023-01-12T07:25:31.563Z,99401.41
2023-01-12T07:28:03.406Z,99416.94
2023-01-12T07:30:33.977Z,99410.03
2023-01-12T07:33:08.727Z,99416.50
2023-01-12T07:35:37.375Z,99396.47
2023-01-12T07:38:09.918Z,99423.56
2023-01-12T07:40:40.934Z,99383.69
2023-01-12T07:43:12.072Z,99384.28
2023-01-12T07:45:42.025Z,99403.56
2023-01-12T07:48:10.490Z,99422.56
2023-01-12T07:50:39.260Z,99417.88
2023-01-12T07:53:10.256Z,99412.66
2023-01-12T07:55:40.840Z,99418.72
2023-01-12T07:58:24.666Z,99386.69
2023-01-12T08:00:57.086Z,99408.22
2023-01-12T08:03:27.777Z,99394.66
2023-01-12T08:06:02.512Z,99391.00
2023-01-12T08:08:32.317Z,99391.88
2023-01-12T08:11:12.367Z,99417.38
2023-01-12T08:13:45.706Z,99410.94
2023-01-12T08:16:22.499Z,99404.19
2023-01-12T08:18:58.361Z,99421.41
2023-01-12T08:21:32.451Z,99421.81
2023-01-12T08:24:07.067Z,99432.66
2023-01-12T08:26:39.655Z,99434.69
2023-01-12T08:29:13.241Z,99412.25
2023-01-12T08:31:47.373Z,99438.84
2023-01-12T08:34:20.007Z,99434.75
2023-01-12T08:36:48.448Z,99442.25
2023-01-12T08:39:18.416Z,99421.81
2023-01-12T08:41:48.529Z,99426.25
2023-01-12T08:44:17.415Z,99450.13
2023-01-12T08:46:52.021Z,99448.84
2023-01-12T08:49:24.389Z,99465.06
2023-01-12T08:51:54.382Z,99459.53
2023-01-12T08:54:30.096Z,99464.94
2023-01-12T08:57:00.439Z,99467.44
2023-01-12T08:59:32.543Z,99473.31
2023-01-12T09:02:05.318Z,99499.78
2023-01-12T09:04:36.037Z,99463.75
2023-01-12T09:07:06.985Z,99487.16
2023-01-12T09:09:41.616Z,99448.16
2023-01-12T09:12:16.562Z,99475.69
2023-01-12T09:14:45.323Z,99472.97
2023-01-12T09:17:15.496Z,99468.97
2023-01-12T09:19:52.100Z,99489.78
2023-01-12T09:22:21.222Z,99476.72
2023-01-12T09:24:51.622Z,99470.13
2023-01-12T09:27:23.347Z,99497.56
2023-01-12T09:29:52.421Z,99507.75
2023-01-12T09:32:32.657Z,99514.16
2023-01-12T09:35:11.721Z,99533.50
2023-01-12T09:37:45.959Z,99532.44
2023-01-12T09:40:17.453Z,99512.84
2023-01-12T09:43:10.493Z,99538.22
2023-01-12T09:45:56.850Z,99556.97
2023-01-12T09:48:31.308Z,99546.94
2023-01-12T09:51:08.970Z,99566.53
2023-01-12T09:53:40.228Z,99561.09
2023-01-12T09:56:19.649Z,99567.97
2023-01-12T09:59:19.136Z,99576.69
2023-01-12T10:01:57.408Z,99586.69
2023-01-12T10:04:44.998Z,99565.31
2023-01-12T10:07:26.567Z,99570.78
2023-01-12T10:09:56.400Z,99598.00
2023-01-12T10:12:30.640Z,99595.25
2023-01-12T10:15:22.776Z,99603.88
2023-01-12T10:18:03.673Z,99594.03
2023-01-12T10:20:40.050Z,99599.59
2023-01-12T10:27:05.879Z,99613.09
2023-01-12T10:30:35.294Z,99615.56
2023-01-12T10:33:19.825Z,99629.50
2023-01-12T10:36:04.052Z,99620.03
2023-01-12T10:38:36.431Z,99621.06
2023-01-12T10:41:28.781Z,99638.06
2023-01-12T10:44:20.934Z,99631.41
2023-01-12T10:47:10.991Z,99643.72
2023-01-12T10:49:41.344Z,99663.53
2023-01-12T10:52:28.861Z,99662.94
2023-01-12T10:55:01.009Z,99669.69
2023-01-12T10:57:29.914Z,99668.16
2023-01-12T11:00:06.280Z,99685.31
2023-01-12T11:02:44.115Z,99697.72
2023-01-12T11:05:31.317Z,99708.22
2023-01-12T11:08:03.100Z,99704.59
2023-01-12T11:10:35.480Z,99714.47
2023-01-12T11:13:05.968Z,99732.41
2023-01-12T11:15:40.068Z,99736.78
2023-01-12T11:18:31.739Z,99743.03
2023-01-12T11:21:18.706Z,99771.34
2023-01-12T11:24:06.647Z,99803.19
2023-01-12T11:26:48.503Z,99825.19
2023-01-12T11:29:36.053Z,99850.78
2023-01-12T11:32:15.765Z,99870.81
2023-01-12T11:34:58.442Z,99894.22
2023-01-12T11:37:44.246Z,99894.44
2023-01-12T11:40:31.587Z,99959.41
2023-01-12T11:43:25.568Z,99965.66
2023-01-12T11:46:13.268Z,99973.75
2023-01-12T11:48:57.050Z,99993.41
2023-01-12T11:51:34.941Z,99984.91
2023-01-12T12:00:39.080Z,100017.44
2023-01-12T12:03:33.814Z,100013.41
2023-01-12T12:06:15.436Z,100013.50
2023-01-12T12:08:59.753Z,100004.94
2023-01-12T12:11:40.314Z,100002.97
2023-01-12T12:14:31.928Z,99990.81
2023-01-12T12:17:12.673Z,99980.72
2023-01-12T12:19:50.899Z,99992.09
2023-01-12T12:22:32.923Z,99985.09
2023-01-12T12:25:14.852Z,99986.03
2023-01-12T12:28:01.989Z,99979.34
2023-01-12T12:31:05.616Z,99964.63
2023-01-12T12:34:08.726Z,99955.75
2023-01-12T12:36:51.854Z,99917.53
2023-01-12T12:39:47.877Z,99930.78
2023-01-12T12:43:06.945Z,99910.75
2023-01-12T12:45:57.563Z,99893.47
2023-01-12T12:48:46.738Z,99857.56
2023-01-12T12:51:37.254Z,99855.22
2023-01-12T12:54:08.425Z,99828.50
2023-01-12T12:57:12.939Z,99839.16
2023-01-12T13:00:02.937Z,99816.22
2023-01-12T13:02:58.907Z,99796.59
2023-01-12T13:05:47.122Z,99842.06
2023-01-12T13:08:45.897Z,99836.00
2023-01-12T13:18:06.777Z,99772.22
2023-01-12T13:21:15.920Z,99801.69
2023-01-12T13:24:25.292Z,99780.13
2023-01-12T13:27:07.130Z,99816.09
2023-01-12T13:29:52.228Z,99812.34
2023-01-12T13:32:45.846Z,99818.66
2023-01-12T13:35:55.942Z,99841.00
2023-01-12T13:39:15.669Z,99820.94
2023-01-12T13:42:09.091Z,99852.22
2023-01-12T13:45:22.223Z,99833.41
2023-01-12T13:47:58.863Z,99869.59
2023-01-12T13:50:34.147Z,99869.00
2023-01-12T13:53:06.993Z,99890.06
2023-01-12T13:55:40.292Z,99867.44
2023-01-12T13:58:29.141Z,99849.50
2023-01-12T14:01:16.225Z,99878.72
2023-01-12T14:04:26.138Z,99851.63
2023-01-12T14:07:10.857Z,99860.28
2023-01-12T14:10:08.042Z,99868.31
2023-01-12T14:13:05.991Z,99890.75
2023-01-12T14:16:29.205Z,99889.19
2023-01-12T14:26:50.052Z,99867.28
2023-01-12T14:33:51.384Z,99816.28
2023-01-12T14:44:34.826Z,99752.00
2023-01-12T14:50:32.216Z,99713.31
2023-01-12T14:53:41.584Z,99676.31
2023-01-12T14:56:19.136Z,99657.84
2023-01-12T15:09:32.359Z,99631.03
2023-01-12T15:16:45.679Z,99620.44
2023-01-12T15:20:03.825Z,99630.00
2023-01-12T15:26:24.524Z,99588.78
2023-01-12T15:35:50.510Z,99609.00
2023-01-12T15:38:42.781Z,99588.91
2023-01-12T15:41:56.119Z,99571.88
2023-01-12T15:44:42.351Z,99575.47
2023-01-12T15:47:16.406Z,99576.41
2023-01-12T15:49:51.725Z,99571.88
2023-01-12T15:52:41.181Z,99580.19
2023-01-12T15:55:36.532Z,99586.19
2023-01-12T15:58:55.419Z,99586.84
2023-01-12T16:01:49.726Z,99573.03
2023-01-12T16:05:05.676Z,99563.16
2023-01-12T16:07:41.739Z,99566.69
2023-01-12T16:24:03.714Z,99538.22
2023-01-12T16:26:46.059Z,99533.00
2023-01-12T16:29:14.649Z,99547.69
2023-01-12T16:31:44.556Z,99551.84
2023-01-12T16:34:13.124Z,99554.88
2023-01-12T16:36:43.986Z,99548.44
2023-01-12T16:39:16.489Z,99534.53
2023-01-12T16:42:05.367Z,99552.06
2023-01-12T16:44:38.160Z,99524.56
2023-01-12T16:47:07.928Z,99538.03
2023-01-12T16:49:39.290Z,99544.28
2023-01-12T16:52:13.628Z,99520.88
2023-01-12T16:54:45.276Z,99542.66
2023-01-12T16:57:16.335Z,99533.00
2023-01-12T16:59:45.068Z,99510.16
2023-01-12T17:02:15.911Z,99525.06
2023-01-12T17:04:45.884Z,99516.78
2023-01-12T17:07:17.356Z,99523.28
2023-01-12T17:09:46.720Z,99522.78
2023-01-12T17:12:16.768Z,99513.63
2023-01-12T17:14:45.548Z,99513.63
2023-01-12T17:17:16.954Z,99513.81
2023-01-12T17:19:46.576Z,99512.94
2023-01-12T17:22:33.457Z,99503.97
2023-01-12T17:25:06.951Z,99506.13
2023-01-12T17:27:37.764Z,99473.41
2023-01-12T17:30:07.079Z,99465.56
2023-01-12T17:32:39.299Z,99477.59
2023-01-12T17:35:10.784Z,99465.66
2023-01-12T17:37:42.751Z,99457.63
2023-01-12T17:40:14.701Z,99438.13
2023-01-12T17:43:01.097Z,99438.13
2023-01-12T17:45:42.363Z,99418.66
2023-01-12T17:48:14.224Z,99403.38
2023-01-12T17:50:44.539Z,99401.56
2023-01-12T17:53:14.884Z,99406.78
2023-01-12T17:55:49.924Z,99389.09
2023-01-12T18:04:21.875Z,99384.06
2023-01-12T18:06:56.152Z,99383.44
2023-01-12T18:09:27.068Z,99392.00
2023-01-12T18:11:56.679Z,99385.00
2023-01-12T18:14:28.146Z,99394.03
2023-01-12T18:17:00.338Z,99380.66
2023-01-12T18:19:35.180Z,99371.13
2023-01-12T18:22:06.036Z,99371.97
2023-01-12T18:24:35.845Z,99367.25
2023-01-12T18:27:06.411Z,99371.00
2023-01-12T18:29:42.416Z,99367.53
2023-01-12T18:32:11.742Z,99371.97
2023-01-12T18:34:41.118Z,99371.84
2023-01-12T18:37:13.764Z,99378.78
2023-01-12T18:39:46.979Z,99374.63
2023-01-12T18:42:51.267Z,99385.22
2023-01-12T18:49:06.599Z,99364.22
2023-01-12T18:51:53.880Z,99376.72
2023-01-12T18:54:23.537Z,99368.47
2023-01-12T18:56:52.930Z,99371.97
2023-01-12T18:59:30.081Z,99391.47
2023-01-12T19:01:59.839Z,99382.00
2023-01-12T19:04:47.494Z,99372.34
2023-01-12T19:07:17.076Z,99397.13
2023-01-12T19:09:45.359Z,99379.53
2023-01-12T19:12:21.463Z,99381.25
2023-01-12T19:15:10.219Z,99380.38
2023-01-12T19:17:41.891Z,99367.25
2023-01-12T19:20:14.895Z,99377.47
2023-01-12T19:23:01.147Z,99377.47
2023-01-12T19:26:09.111Z,99378.22
2023-01-12T19:28:41.009Z,99366.88
2023-01-12T19:31:15.181Z,99385.00
2023-01-12T19:33:50.285Z,99375.19
2023-01-12T19:36:41.139Z,99370.06
2023-01-12T19:39:10.487Z,99367.41
2023-01-12T19:44:49.076Z,99362.59
2023-01-12T19:47:32.680Z,99369.88
2023-01-12T19:53:09.980Z,99384.06
2023-01-12T19:55:57.332Z,99375.66
2023-01-12T19:58:27.577Z,99377.06
2023-01-12T20:05:06.999Z,99385.41
2023-01-12T20:07:39.222Z,99363.06
2023-01-12T20:10:20.843Z,99365.63
2023-01-12T20:12:57.477Z,99386.44
2023-01-12T20:15:27.697Z,99383.03
2023-01-12T20:18:00.073Z,99397.13
2023-01-12T20:20:30.341Z,99389.94
2023-01-12T20:23:06.856Z,99401.28
2023-01-12T20:25:36.199Z,99396.00
2023-01-12T20:28:06.047Z,99400.16
2023-01-12T20:30:38.151Z,99395.81
2023-01-12T20:33:10.878Z,99408.00
2023-01-12T20:35:47.594Z,99398.91
2023-01-12T20:38:18.604Z,99378.78
2023-01-12T20:40:47.586Z,99413.41
2023-01-12T20:43:15.859Z,99403.56
2023-01-12T20:45:44.330Z,99399.22
2023-01-12T20:48:15.478Z,99417.56
2023-01-12T20:50:45.633Z,99414.34
2023-01-12T20:53:17.981Z,99411.03
2023-01-12T20:55:50.064Z,99416.63
2023-01-12T20:58:32.285Z,99415.88
2023-01-12T21:01:10.963Z,99414.44
2023-01-12T21:03:41.631Z,99413.88
2023-01-12T21:06:18.203Z,99425.88
2023-01-12T21:08:49.262Z,99437.16
2023-01-12T21:11:22.644Z,99441.59
2023-01-12T21:13:50.768Z,99447.25
2023-01-12T21:16:30.058Z,99436.75
2023-01-12T21:19:00.124Z,99451.91
2023-01-12T21:21:28.493Z,99443.66
2023-01-12T21:23:59.451Z,99447.56
2023-01-12T21:26:28.751Z,99471.69
2023-01-12T21:28:57.596Z,99474.50
2023-01-12T21:31:27.707Z,99470.16
2023-01-12T21:33:56.782Z,99473.84
2023-01-12T21:36:27.334Z,99484.59
2023-01-12T21:38:59.493Z,99494.94
2023-01-12T21:42:03.161Z,99495.09
2023-01-12T21:44:35.318Z,99505.69
2023-01-12T21:47:05.769Z,99515.19
2023-01-12T21:49:34.594Z,99528.59
2023-01-12T21:52:06.289Z,99536.03
2023-01-12T21:54:39.136Z,99544.56
2023-01-12T21:57:08.803Z,99542.19
2023-01-12T21:59:41.946Z,99530.09
2023-01-12T22:02:24.469Z,99569.81
2023-01-12T22:04:54.001Z,99588.28
2023-01-12T22:07:34.534Z,99672.81
2023-01-12T22:10:23.738Z,99796.31
2023-01-12T22:12:54.334Z,99985.06
2023-01-12T22:15:23.712Z,100084.78
2023-01-12T22:17:52.304Z,100087.34
2023-01-12T22:20:20.949Z,100064.28
2023-01-12T22:22:48.996Z,100038.69
2023-01-12T22:25:22.469Z,100014.13
2023-01-12T22:27:51.551Z,99998.31
2023-01-12T22:30:28.178Z,99968.72
2023-01-12T22:32:58.764Z,99960.63
2023-01-12T22:35:31.212Z,99966.78
2023-01-12T22:38:04.386Z,99973.38
2023-01-12T22:40:35.718Z,99958.56
2023-01-12T22:43:21.522Z,99966.50
2023-01-12T22:45:55.925Z,99979.13
2023-01-12T22:48:24.258Z,99973.91
2023-01-12T22:51:02.569Z,99970.56
2023-01-12T22:53:46.659Z,99990.63
2023-01-12T22:56:25.982Z,99977.56
2023-01-12T22:59:12.830Z,99974.50
2023-01-12T23:01:48.562Z,99958.03
2023-01-12T23:04:21.718Z,99951.25
2023-01-12T23:06:53.293Z,99953.19
2023-01-12T23:09:21.455Z,99952.78
2023-01-12T23:11:52.069Z,99938.28
2023-01-12T23:14:20.477Z,99938.22
2023-01-12T23:19:48.924Z,99942.47
2023-01-12T23:22:16.737Z,99952.03
2023-01-12T23:24:44.899Z,99955.53
2023-01-12T23:27:14.543Z,99961.03
2023-01-12T23:29:42.843Z,99971.31
2023-01-12T23:32:10.802Z,99973.19
2023-01-12T23:34:40.079Z,100002.50
2023-01-12T23:37:11.943Z,100006.00
2023-01-12T23:39:39.923Z,100006.75
2023-01-12T23:42:08.922Z,100024.88
2023-01-12T23:44:40.803Z,100004.03
2023-01-12T23:47:09.294Z,100016.59
2023-01-12T23:49:39.785Z,100036.09
2023-01-12T23:52:07.977Z,100046.78
2023-01-12T23:54:40.443Z,100027.44
2023-01-12T23:57:08.512Z,100035.50
2023-01-12T23:59:42.284Z,100034.84
